Terminal Aerodrome Forecast
Issued by NWS Wilmington, NC

Current Version | Previous Version | Text Only | Print | Product List | Glossary On
Versions: 1 2 3 4 5 6 7 8 9 10 11 12 13 14 15
637
FTUS42 KILM 241120
TAFFLO
TAF
KFLO 241120Z 2412/2512 04010KT 6SM -SHRA OVC012
      TEMPO 2412/2416 2SM +SHRA OVC005
     FM241600 07010KT 5SM -SHRA OVC009
      TEMPO 2416/2420 1SM +TSRA BKN004CB
     FM242000 08010KT 6SM -SHRA OVC002
      TEMPO 2420/2424 2SM +SHRA BKN004 OVC015
     FM250000 03009KT 2SM +SHRA OVC007
     FM250300 36008KT 2SM SHRA OVC002
     FM250800 32006KT 3SM -SHRA BKN004
      TEMPO 2508/2512 P6SM OVC010=

USA.gov is the U.S. government's official web portal to all federal, state and local government web resources and services.